sensor_id;sensor_type;location;lat;lon;timestamp;temperature;humidity
10121;DHT22;5100;45.176;5.714;2023-07-20T00:01:28;28.40;49.40
10121;DHT22;5100;45.176;5.714;2023-07-20T00:03:55;28.40;49.40
10121;DHT22;5100;45.176;5.714;2023-07-20T00:06:22;28.40;49.50
10121;DHT22;5100;45.176;5.714;2023-07-20T00:08:48;28.40;49.50
10121;DHT22;5100;45.176;5.714;2023-07-20T00:11:14;28.30;49.50
10121;DHT22;5100;45.176;5.714;2023-07-20T00:13:53;28.30;49.60
10121;DHT22;5100;45.176;5.714;2023-07-20T00:16:19;28.30;49.70
10121;DHT22;5100;45.176;5.714;2023-07-20T00:18:46;28.30;49.70
10121;DHT22;5100;45.176;5.714;2023-07-20T00:21:12;28.30;49.80
10121;DHT22;5100;45.176;5.714;2023-07-20T00:23:38;28.30;49.80
10121;DHT22;5100;45.176;5.714;2023-07-20T00:26:04;28.30;49.80
10121;DHT22;5100;45.176;5.714;2023-07-20T00:28:30;28.20;49.90
10121;DHT22;5100;45.176;5.714;2023-07-20T00:30:58;28.20;49.90
10121;DHT22;5100;45.176;5.714;2023-07-20T00:33:24;28.20;49.90
10121;DHT22;5100;45.176;5.714;2023-07-20T00:35:52;28.20;49.90
10121;DHT22;5100;45.176;5.714;2023-07-20T00:38:18;28.20;50.00
10121;DHT22;5100;45.176;5.714;2023-07-20T00:40:44;28.20;50.00
10121;DHT22;5100;45.176;5.714;2023-07-20T00:43:10;28.20;50.00
10121;DHT22;5100;45.176;5.714;2023-07-20T00:45:38;28.20;50.10
10121;DHT22;5100;45.176;5.714;2023-07-20T00:48:05;28.10;50.20
10121;DHT22;5100;45.176;5.714;2023-07-20T00:50:32;28.10;50.20
10121;DHT22;5100;45.176;5.714;2023-07-20T00:52:59;28.10;50.30
10121;DHT22;5100;45.176;5.714;2023-07-20T00:55:26;28.10;50.30
10121;DHT22;5100;45.176;5.714;2023-07-20T00:57:53;28.10;50.30
10121;DHT22;5100;45.176;5.714;2023-07-20T01:00:19;28.10;50.30
10121;DHT22;5100;45.176;5.714;2023-07-20T01:02:45;28.10;50.40
10121;DHT22;5100;45.176;5.714;2023-07-20T01:05:11;28.00;50.40
10121;DHT22;5100;45.176;5.714;2023-07-20T01:07:55;28.00;50.40
10121;DHT22;5100;45.176;5.714;2023-07-20T01:10:40;28.00;50.50
10121;DHT22;5100;45.176;5.714;2023-07-20T01:13:10;28.00;50.50
10121;DHT22;5100;45.176;5.714;2023-07-20T01:15:38;28.00;50.50
10121;DHT22;5100;45.176;5.714;2023-07-20T01:18:04;27.90;50.60
10121;DHT22;5100;45.176;5.714;2023-07-20T01:20:32;27.90;50.70
10121;DHT22;5100;45.176;5.714;2023-07-20T01:26:03;27.90;50.80
10121;DHT22;5100;45.176;5.714;2023-07-20T01:31:33;27.80;50.90
10121;DHT22;5100;45.176;5.714;2023-07-20T01:34:01;27.70;51.00
10121;DHT22;5100;45.176;5.714;2023-07-20T01:36:34;27.70;51.10
10121;DHT22;5100;45.176;5.714;2023-07-20T01:39:01;27.70;51.10
10121;DHT22;5100;45.176;5.714;2023-07-20T01:41:28;27.70;51.10
10121;DHT22;5100;45.176;5.714;2023-07-20T01:43:57;27.60;51.20
10121;DHT22;5100;45.176;5.714;2023-07-20T01:46:24;27.60;51.20
10121;DHT22;5100;45.176;5.714;2023-07-20T01:48:50;27.60;51.20
10121;DHT22;5100;45.176;5.714;2023-07-20T01:51:16;27.60;51.30
10121;DHT22;5100;45.176;5.714;2023-07-20T01:53:43;27.60;51.30
10121;DHT22;5100;45.176;5.714;2023-07-20T01:56:10;27.60;51.40
10121;DHT22;5100;45.176;5.714;2023-07-20T01:58:38;27.60;51.40
10121;DHT22;5100;45.176;5.714;2023-07-20T02:01:05;27.50;51.50
10121;DHT22;5100;45.176;5.714;2023-07-20T02:03:31;27.50;51.50
10121;DHT22;5100;45.176;5.714;2023-07-20T02:05:57;27.50;51.50
10121;DHT22;5100;45.176;5.714;2023-07-20T02:08:25;27.50;51.60
10121;DHT22;5100;45.176;5.714;2023-07-20T02:10:52;27.40;51.60
10121;DHT22;5100;45.176;5.714;2023-07-20T02:13:18;27.40;51.60
10121;DHT22;5100;45.176;5.714;2023-07-20T02:15:44;27.40;51.60
10121;DHT22;5100;45.176;5.714;2023-07-20T02:18:10;27.40;51.60
10121;DHT22;5100;45.176;5.714;2023-07-20T02:20:37;27.40;51.60
10121;DHT22;5100;45.176;5.714;2023-07-20T02:23:02;27.30;51.60
10121;DHT22;5100;45.176;5.714;2023-07-20T02:25:28;27.30;51.70
10121;DHT22;5100;45.176;5.714;2023-07-20T02:27:56;27.30;51.80
10121;DHT22;5100;45.176;5.714;2023-07-20T02:30:22;27.30;52.00
10121;DHT22;5100;45.176;5.714;2023-07-20T02:32:48;27.30;52.10
10121;DHT22;5100;45.176;5.714;2023-07-20T02:35:15;27.30;52.20
10121;DHT22;5100;45.176;5.714;2023-07-20T02:37:42;27.20;52.30
10121;DHT22;5100;45.176;5.714;2023-07-20T02:40:08;27.20;52.40
10121;DHT22;5100;45.176;5.714;2023-07-20T02:42:35;27.20;52.40
10121;DHT22;5100;45.176;5.714;2023-07-20T02:45:02;27.10;52.50
10121;DHT22;5100;45.176;5.714;2023-07-20T02:47:29;27.10;52.60
10121;DHT22;5100;45.176;5.714;2023-07-20T02:49:56;27.10;52.70
10121;DHT22;5100;45.176;5.714;2023-07-20T02:52:22;27.00;52.80
10121;DHT22;5100;45.176;5.714;2023-07-20T02:54:49;27.00;52.90
10121;DHT22;5100;45.176;5.714;2023-07-20T02:57:15;27.00;52.90
10121;DHT22;5100;45.176;5.714;2023-07-20T02:59:42;26.90;52.90
10121;DHT22;5100;45.176;5.714;2023-07-20T03:02:08;26.90;52.90
10121;DHT22;5100;45.176;5.714;2023-07-20T03:04:36;26.90;53.10
10121;DHT22;5100;45.176;5.714;2023-07-20T03:07:05;26.90;53.10
10121;DHT22;5100;45.176;5.714;2023-07-20T03:09:32;26.80;53.10
10121;DHT22;5100;45.176;5.714;2023-07-20T03:11:59;26.80;53.20
10121;DHT22;5100;45.176;5.714;2023-07-20T03:14:26;26.80;53.20
10121;DHT22;5100;45.176;5.714;2023-07-20T03:16:52;26.80;53.20
10121;DHT22;5100;45.176;5.714;2023-07-20T03:19:18;26.80;53.20
10121;DHT22;5100;45.176;5.714;2023-07-20T03:21:44;26.70;53.30
10121;DHT22;5100;45.176;5.714;2023-07-20T03:24:10;26.70;53.30
10121;DHT22;5100;45.176;5.714;2023-07-20T03:26:36;26.70;53.30
10121;DHT22;5100;45.176;5.714;2023-07-20T03:29:04;26.70;53.30
10121;DHT22;5100;45.176;5.714;2023-07-20T03:31:32;26.70;53.40
10121;DHT22;5100;45.176;5.714;2023-07-20T03:33:58;26.70;53.40
10121;DHT22;5100;45.176;5.714;2023-07-20T03:36:24;26.70;53.40
10121;DHT22;5100;45.176;5.714;2023-07-20T03:38:50;26.60;53.40
10121;DHT22;5100;45.176;5.714;2023-07-20T03:41:17;26.60;53.40
10121;DHT22;5100;45.176;5.714;2023-07-20T03:43:45;26.60;53.50
10121;DHT22;5100;45.176;5.714;2023-07-20T03:46:11;26.60;53.50
10121;DHT22;5100;45.176;5.714;2023-07-20T03:48:38;26.60;53.60
10121;DHT22;5100;45.176;5.714;2023-07-20T03:51:04;26.50;53.60
10121;DHT22;5100;45.176;5.714;2023-07-20T03:53:30;26.50;53.70
10121;DHT22;5100;45.176;5.714;2023-07-20T03:55:56;26.50;53.70
10121;DHT22;5100;45.176;5.714;2023-07-20T03:58:22;26.50;53.70
10121;DHT22;5100;45.176;5.714;2023-07-20T04:00:50;26.50;53.80
10121;DHT22;5100;45.176;5.714;2023-07-20T04:03:18;26.40;53.80
10121;DHT22;5100;45.176;5.714;2023-07-20T04:05:45;26.40;53.90
10121;DHT22;5100;45.176;5.714;2023-07-20T04:08:11;26.40;53.90
10121;DHT22;5100;45.176;5.714;2023-07-20T04:10:38;26.40;54.00
10121;DHT22;5100;45.176;5.714;2023-07-20T04:13:05;26.40;54.00
10121;DHT22;5100;45.176;5.714;2023-07-20T04:15:31;26.30;54.10
10121;DHT22;5100;45.176;5.714;2023-07-20T04:17:57;26.30;54.10
10121;DHT22;5100;45.176;5.714;2023-07-20T04:20:24;26.30;54.20
10121;DHT22;5100;45.176;5.714;2023-07-20T04:22:50;26.30;54.20
10121;DHT22;5100;45.176;5.714;2023-07-20T04:25:17;26.20;54.30
10121;DHT22;5100;45.176;5.714;2023-07-20T04:27:44;26.20;54.30
10121;DHT22;5100;45.176;5.714;2023-07-20T04:30:10;26.20;54.30
10121;DHT22;5100;45.176;5.714;2023-07-20T04:32:38;26.20;54.40
10121;DHT22;5100;45.176;5.714;2023-07-20T04:35:10;26.20;54.40
10121;DHT22;5100;45.176;5.714;2023-07-20T04:37:37;26.20;54.50
10121;DHT22;5100;45.176;5.714;2023-07-20T04:40:03;26.10;54.60
10121;DHT22;5100;45.176;5.714;2023-07-20T04:42:29;26.10;54.60
10121;DHT22;5100;45.176;5.714;2023-07-20T04:44:55;26.10;54.60
10121;DHT22;5100;45.176;5.714;2023-07-20T04:47:23;26.10;54.60
10121;DHT22;5100;45.176;5.714;2023-07-20T04:49:49;26.10;54.70
10121;DHT22;5100;45.176;5.714;2023-07-20T04:52:16;26.10;54.70
10121;DHT22;5100;45.176;5.714;2023-07-20T04:54:42;26.10;54.70
10121;DHT22;5100;45.176;5.714;2023-07-20T04:57:11;26.10;54.70
10121;DHT22;5100;45.176;5.714;2023-07-20T04:59:38;26.10;54.70
10121;DHT22;5100;45.176;5.714;2023-07-20T05:02:05;26.10;54.70
10121;DHT22;5100;45.176;5.714;2023-07-20T05:04:31;26.10;54.70
10121;DHT22;5100;45.176;5.714;2023-07-20T05:06:57;26.20;54.70
10121;DHT22;5100;45.176;5.714;2023-07-20T05:09:23;26.20;54.70
10121;DHT22;5100;45.176;5.714;2023-07-20T05:11:49;26.20;54.60
10121;DHT22;5100;45.176;5.714;2023-07-20T05:14:16;26.20;54.60
10121;DHT22;5100;45.176;5.714;2023-07-20T05:16:43;26.30;54.60
10121;DHT22;5100;45.176;5.714;2023-07-20T05:19:09;26.30;54.60
10121;DHT22;5100;45.176;5.714;2023-07-20T05:21:35;26.20;54.60
10121;DHT22;5100;45.176;5.714;2023-07-20T05:24:02;26.30;54.60
10121;DHT22;5100;45.176;5.714;2023-07-20T05:26:28;26.40;54.50
10121;DHT22;5100;45.176;5.714;2023-07-20T05:28:53;26.50;54.40
10121;DHT22;5100;45.176;5.714;2023-07-20T05:31:20;26.60;54.30
10121;DHT22;5100;45.176;5.714;2023-07-20T05:33:46;26.70;54.20
10121;DHT22;5100;45.176;5.714;2023-07-20T05:36:12;26.80;54.00
10121;DHT22;5100;45.176;5.714;2023-07-20T05:38:39;26.90;53.80
10121;DHT22;5100;45.176;5.714;2023-07-20T05:41:05;27.00;53.70
10121;DHT22;5100;45.176;5.714;2023-07-20T05:43:31;27.00;53.70
10121;DHT22;5100;45.176;5.714;2023-07-20T05:45:57;27.10;53.50
10121;DHT22;5100;45.176;5.714;2023-07-20T05:48:23;27.10;53.50
10121;DHT22;5100;45.176;5.714;2023-07-20T05:50:49;27.10;53.40
10121;DHT22;5100;45.176;5.714;2023-07-20T05:53:16;27.20;53.30
10121;DHT22;5100;45.176;5.714;2023-07-20T05:55:42;27.20;53.20
10121;DHT22;5100;45.176;5.714;2023-07-20T05:58:08;27.30;53.10
10121;DHT22;5100;45.176;5.714;2023-07-20T06:00:34;27.30;53.00
10121;DHT22;5100;45.176;5.714;2023-07-20T06:03:01;27.40;53.00
10121;DHT22;5100;45.176;5.714;2023-07-20T06:05:26;27.40;53.00
10121;DHT22;5100;45.176;5.714;2023-07-20T06:07:52;27.30;52.90
10121;DHT22;5100;45.176;5.714;2023-07-20T06:10:20;27.30;53.00
10121;DHT22;5100;45.176;5.714;2023-07-20T06:12:46;27.30;53.00
10121;DHT22;5100;45.176;5.714;2023-07-20T06:15:32;27.30;53.10
10121;DHT22;5100;45.176;5.714;2023-07-20T06:17:59;27.30;53.20
10121;DHT22;5100;45.176;5.714;2023-07-20T06:20:24;27.30;53.20
10121;DHT22;5100;45.176;5.714;2023-07-20T06:22:50;27.40;53.20
10121;DHT22;5100;45.176;5.714;2023-07-20T06:25:17;27.40;53.10
10121;DHT22;5100;45.176;5.714;2023-07-20T06:27:43;27.30;53.10
10121;DHT22;5100;45.176;5.714;2023-07-20T06:30:10;27.30;53.00
10121;DHT22;5100;45.176;5.714;2023-07-20T06:32:36;27.30;53.00
10121;DHT22;5100;45.176;5.714;2023-07-20T06:35:02;27.30;53.10
10121;DHT22;5100;45.176;5.714;2023-07-20T06:37:28;27.30;53.10
10121;DHT22;5100;45.176;5.714;2023-07-20T06:39:55;27.30;53.00
10121;DHT22;5100;45.176;5.714;2023-07-20T06:42:20;27.30;53.10
10121;DHT22;5100;45.176;5.714;2023-07-20T06:44:46;27.30;53.10
10121;DHT22;5100;45.176;5.714;2023-07-20T06:47:12;27.20;53.20
10121;DHT22;5100;45.176;5.714;2023-07-20T06:49:38;27.20;53.30
10121;DHT22;5100;45.176;5.714;2023-07-20T06:52:05;27.20;53.30
10121;DHT22;5100;45.176;5.714;2023-07-20T06:54:31;27.20;53.30
10121;DHT22;5100;45.176;5.714;2023-07-20T06:56:57;27.20;53.30
10121;DHT22;5100;45.176;5.714;2023-07-20T06:59:23;27.20;53.20
10121;DHT22;5100;45.176;5.714;2023-07-20T07:01:50;27.20;53.20
10121;DHT22;5100;45.176;5.714;2023-07-20T07:04:16;27.30;53.20
10121;DHT22;5100;45.176;5.714;2023-07-20T07:06:42;27.40;53.20
10121;DHT22;5100;45.176;5.714;2023-07-20T07:09:09;27.50;53.00
10121;DHT22;5100;45.176;5.714;2023-07-20T07:11:34;27.50;52.70
10121;DHT22;5100;45.176;5.714;2023-07-20T07:14:00;27.50;52.70
10121;DHT22;5100;45.176;5.714;2023-07-20T07:16:27;27.60;52.70
10121;DHT22;5100;45.176;5.714;2023-07-20T07:18:53;27.60;52.60
10121;DHT22;5100;45.176;5.714;2023-07-20T07:21:19;27.60;52.50
10121;DHT22;5100;45.176;5.714;2023-07-20T07:23:45;27.60;52.50
10121;DHT22;5100;45.176;5.714;2023-07-20T07:26:11;27.70;52.50
10121;DHT22;5100;45.176;5.714;2023-07-20T07:28:37;27.70;52.40
10121;DHT22;5100;45.176;5.714;2023-07-20T07:31:07;27.80;52.40
10121;DHT22;5100;45.176;5.714;2023-07-20T07:33:33;27.90;52.40
10121;DHT22;5100;45.176;5.714;2023-07-20T07:36:00;27.90;52.20
10121;DHT22;5100;45.176;5.714;2023-07-20T07:38:26;28.00;51.70
10121;DHT22;5100;45.176;5.714;2023-07-20T07:40:52;27.90;51.60
10121;DHT22;5100;45.176;5.714;2023-07-20T07:43:18;27.90;51.70
10121;DHT22;5100;45.176;5.714;2023-07-20T07:45:44;27.80;51.90
10121;DHT22;5100;45.176;5.714;2023-07-20T07:48:10;27.90;52.10
10121;DHT22;5100;45.176;5.714;2023-07-20T07:50:39;27.90;52.20
10121;DHT22;5100;45.176;5.714;2023-07-20T07:53:07;28.00;52.10
10121;DHT22;5100;45.176;5.714;2023-07-20T07:55:35;28.10;52.10
10121;DHT22;5100;45.176;5.714;2023-07-20T07:58:01;28.10;52.00
10121;DHT22;5100;45.176;5.714;2023-07-20T08:00:27;28.20;51.80
10121;DHT22;5100;45.176;5.714;2023-07-20T08:02:53;28.30;51.60
10121;DHT22;5100;45.176;5.714;2023-07-20T08:05:19;28.40;51.60
10121;DHT22;5100;45.176;5.714;2023-07-20T08:07:45;28.50;51.60
10121;DHT22;5100;45.176;5.714;2023-07-20T08:10:11;28.50;51.60
10121;DHT22;5100;45.176;5.714;2023-07-20T08:12:38;28.60;51.60
10121;DHT22;5100;45.176;5.714;2023-07-20T08:15:04;28.60;51.50
10121;DHT22;5100;45.176;5.714;2023-07-20T08:17:30;28.70;51.60
10121;DHT22;5100;45.176;5.714;2023-07-20T08:19:56;28.70;51.50
10121;DHT22;5100;45.176;5.714;2023-07-20T08:22:22;28.70;51.40
10121;DHT22;5100;45.176;5.714;2023-07-20T08:24:48;28.80;51.40
10121;DHT22;5100;45.176;5.714;2023-07-20T08:27:14;28.80;51.40
10121;DHT22;5100;45.176;5.714;2023-07-20T08:29:40;28.80;51.30
10121;DHT22;5100;45.176;5.714;2023-07-20T08:32:06;28.90;51.40
10121;DHT22;5100;45.176;5.714;2023-07-20T08:34:32;28.90;51.50
10121;DHT22;5100;45.176;5.714;2023-07-20T08:36:59;28.90;51.50
10121;DHT22;5100;45.176;5.714;2023-07-20T08:39:25;28.90;51.40
10121;DHT22;5100;45.176;5.714;2023-07-20T08:41:51;28.90;51.40
10121;DHT22;5100;45.176;5.714;2023-07-20T08:44:17;28.90;51.30
10121;DHT22;5100;45.176;5.714;2023-07-20T08:46:44;29.00;51.20
10121;DHT22;5100;45.176;5.714;2023-07-20T08:49:11;29.00;51.20
10121;DHT22;5100;45.176;5.714;2023-07-20T08:51:38;29.00;51.20
10121;DHT22;5100;45.176;5.714;2023-07-20T08:54:04;29.00;51.10
10121;DHT22;5100;45.176;5.714;2023-07-20T08:56:34;29.00;51.10
10121;DHT22;5100;45.176;5.714;2023-07-20T08:59:01;29.00;51.10
10121;DHT22;5100;45.176;5.714;2023-07-20T09:01:28;29.00;51.10
10121;DHT22;5100;45.176;5.714;2023-07-20T09:03:55;29.00;51.10
10121;DHT22;5100;45.176;5.714;2023-07-20T09:06:22;29.00;51.10
10121;DHT22;5100;45.176;5.714;2023-07-20T09:08:48;29.00;51.30
10121;DHT22;5100;45.176;5.714;2023-07-20T09:11:14;29.10;51.20
10121;DHT22;5100;45.176;5.714;2023-07-20T09:13:41;29.10;51.20
10121;DHT22;5100;45.176;5.714;2023-07-20T09:16:06;29.10;51.00
10121;DHT22;5100;45.176;5.714;2023-07-20T09:18:33;29.10;51.00
10121;DHT22;5100;45.176;5.714;2023-07-20T09:21:04;29.10;50.80
10121;DHT22;5100;45.176;5.714;2023-07-20T09:23:38;29.10;50.80
10121;DHT22;5100;45.176;5.714;2023-07-20T09:26:15;29.10;50.60
10121;DHT22;5100;45.176;5.714;2023-07-20T09:28:49;29.10;50.70
10121;DHT22;5100;45.176;5.714;2023-07-20T09:31:20;29.20;50.70
10121;DHT22;5100;45.176;5.714;2023-07-20T09:33:47;29.20;50.60
10121;DHT22;5100;45.176;5.714;2023-07-20T09:36:13;29.20;50.50
10121;DHT22;5100;45.176;5.714;2023-07-20T09:38:43;29.20;50.20
10121;DHT22;5100;45.176;5.714;2023-07-20T09:41:13;29.20;50.30
10121;DHT22;5100;45.176;5.714;2023-07-20T09:43:41;29.20;50.50
10121;DHT22;5100;45.176;5.714;2023-07-20T09:46:07;29.20;50.60
10121;DHT22;5100;45.176;5.714;2023-07-20T09:48:34;29.20;50.60
10121;DHT22;5100;45.176;5.714;2023-07-20T09:51:00;29.20;50.70
10121;DHT22;5100;45.176;5.714;2023-07-20T09:53:27;29.30;50.70
10121;DHT22;5100;45.176;5.714;2023-07-20T09:55:54;29.30;50.70
10121;DHT22;5100;45.176;5.714;2023-07-20T09:58:21;29.30;50.60
10121;DHT22;5100;45.176;5.714;2023-07-20T10:00:48;29.30;50.50
10121;DHT22;5100;45.176;5.714;2023-07-20T10:03:29;29.30;50.40
10121;DHT22;5100;45.176;5.714;2023-07-20T10:06:04;29.30;50.60
10121;DHT22;5100;45.176;5.714;2023-07-20T10:08:33;29.30;50.70
10121;DHT22;5100;45.176;5.714;2023-07-20T10:11:02;29.30;50.70
10121;DHT22;5100;45.176;5.714;2023-07-20T10:13:29;29.40;50.70
10121;DHT22;5100;45.176;5.714;2023-07-20T10:16:02;29.40;50.50
10121;DHT22;5100;45.176;5.714;2023-07-20T10:18:41;29.40;50.50
10121;DHT22;5100;45.176;5.714;2023-07-20T10:21:09;29.40;50.30
10121;DHT22;5100;45.176;5.714;2023-07-20T10:23:35;29.40;50.20
10121;DHT22;5100;45.176;5.714;2023-07-20T10:26:02;29.40;50.30
10121;DHT22;5100;45.176;5.714;2023-07-20T10:28:29;29.40;50.40
10121;DHT22;5100;45.176;5.714;2023-07-20T10:30:55;29.50;50.30
10121;DHT22;5100;45.176;5.714;2023-07-20T10:33:21;29.50;50.40
10121;DHT22;5100;45.176;5.714;2023-07-20T10:36:01;29.50;50.30
10121;DHT22;5100;45.176;5.714;2023-07-20T10:38:53;29.50;50.10
10121;DHT22;5100;45.176;5.714;2023-07-20T10:41:39;29.50;50.20
10121;DHT22;5100;45.176;5.714;2023-07-20T10:44:09;29.50;50.30
10121;DHT22;5100;45.176;5.714;2023-07-20T10:49:08;29.50;50.20
10121;DHT22;5100;45.176;5.714;2023-07-20T10:51:42;29.50;50.30
10121;DHT22;5100;45.176;5.714;2023-07-20T10:57:21;29.60;50.20
10121;DHT22;5100;45.176;5.714;2023-07-20T10:59:47;29.60;50.30
10121;DHT22;5100;45.176;5.714;2023-07-20T11:02:13;29.60;50.30
10121;DHT22;5100;45.176;5.714;2023-07-20T11:04:40;29.60;50.30
10121;DHT22;5100;45.176;5.714;2023-07-20T11:07:07;29.60;50.40
10121;DHT22;5100;45.176;5.714;2023-07-20T11:09:38;29.70;50.40
10121;DHT22;5100;45.176;5.714;2023-07-20T11:12:19;29.70;50.40
10121;DHT22;5100;45.176;5.714;2023-07-20T11:14:56;29.70;50.30
10121;DHT22;5100;45.176;5.714;2023-07-20T11:17:30;29.70;50.20
10121;DHT22;5100;45.176;5.714;2023-07-20T11:19:57;29.70;50.20
10121;DHT22;5100;45.176;5.714;2023-07-20T11:22:24;29.70;50.20
10121;DHT22;5100;45.176;5.714;2023-07-20T11:24:50;29.70;50.30
10121;DHT22;5100;45.176;5.714;2023-07-20T11:27:16;29.70;50.30
10121;DHT22;5100;45.176;5.714;2023-07-20T11:29:45;29.80;50.40
10121;DHT22;5100;45.176;5.714;2023-07-20T11:32:11;29.80;50.40
10121;DHT22;5100;45.176;5.714;2023-07-20T11:34:37;29.80;50.50
10121;DHT22;5100;45.176;5.714;2023-07-20T11:37:05;29.80;50.50
10121;DHT22;5100;45.176;5.714;2023-07-20T11:39:31;29.80;50.60
10121;DHT22;5100;45.176;5.714;2023-07-20T11:41:57;29.80;50.60
10121;DHT22;5100;45.176;5.714;2023-07-20T11:44:26;29.80;50.60
10121;DHT22;5100;45.176;5.714;2023-07-20T11:49:34;29.80;50.60
10121;DHT22;5100;45.176;5.714;2023-07-20T11:52:01;29.90;50.50
10121;DHT22;5100;45.176;5.714;2023-07-20T11:54:27;29.90;50.40
10121;DHT22;5100;45.176;5.714;2023-07-20T11:56:54;29.90;50.40
10121;DHT22;5100;45.176;5.714;2023-07-20T11:59:21;29.90;50.40
10121;DHT22;5100;45.176;5.714;2023-07-20T12:01:47;29.90;50.40
10121;DHT22;5100;45.176;5.714;2023-07-20T12:04:14;29.90;50.40
10121;DHT22;5100;45.176;5.714;2023-07-20T12:06:40;29.90;50.50
10121;DHT22;5100;45.176;5.714;2023-07-20T12:09:06;29.90;50.50
10121;DHT22;5100;45.176;5.714;2023-07-20T12:11:36;29.90;50.50
10121;DHT22;5100;45.176;5.714;2023-07-20T12:14:04;29.90;50.40
10121;DHT22;5100;45.176;5.714;2023-07-20T12:16:32;30.00;50.40
10121;DHT22;5100;45.176;5.714;2023-07-20T12:19:06;30.00;50.40
10121;DHT22;5100;45.176;5.714;2023-07-20T12:21:37;30.00;50.30
10121;DHT22;5100;45.176;5.714;2023-07-20T12:24:04;30.00;50.20
10121;DHT22;5100;45.176;5.714;2023-07-20T12:26:31;30.00;50.20
10121;DHT22;5100;45.176;5.714;2023-07-20T12:28:58;30.00;50.30
10121;DHT22;5100;45.176;5.714;2023-07-20T12:31:25;30.00;50.30
10121;DHT22;5100;45.176;5.714;2023-07-20T12:33:52;30.10;50.10
10121;DHT22;5100;45.176;5.714;2023-07-20T12:36:19;30.10;50.10
10121;DHT22;5100;45.176;5.714;2023-07-20T12:38:45;30.10;50.10
10121;DHT22;5100;45.176;5.714;2023-07-20T12:41:12;30.10;49.90
10121;DHT22;5100;45.176;5.714;2023-07-20T12:43:40;30.10;49.80
10121;DHT22;5100;45.176;5.714;2023-07-20T12:46:07;30.10;49.80
10121;DHT22;5100;45.176;5.714;2023-07-20T12:48:33;30.10;49.80
10121;DHT22;5100;45.176;5.714;2023-07-20T12:51:00;30.10;49.80
10121;DHT22;5100;45.176;5.714;2023-07-20T12:53:26;30.10;49.80
10121;DHT22;5100;45.176;5.714;2023-07-20T12:55:51;30.10;49.80
10121;DHT22;5100;45.176;5.714;2023-07-20T12:58:18;30.20;49.80
10121;DHT22;5100;45.176;5.714;2023-07-20T13:00:44;30.20;49.80
10121;DHT22;5100;45.176;5.714;2023-07-20T13:03:10;30.20;49.80
10121;DHT22;5100;45.176;5.714;2023-07-20T13:05:36;30.20;49.70
10121;DHT22;5100;45.176;5.714;2023-07-20T13:08:02;30.20;49.70
10121;DHT22;5100;45.176;5.714;2023-07-20T13:10:29;30.20;49.70
10121;DHT22;5100;45.176;5.714;2023-07-20T13:12:55;30.20;49.70
10121;DHT22;5100;45.176;5.714;2023-07-20T13:15:23;30.30;49.70
10121;DHT22;5100;45.176;5.714;2023-07-20T13:17:50;30.30;49.70
10121;DHT22;5100;45.176;5.714;2023-07-20T13:20:17;30.30;49.60
10121;DHT22;5100;45.176;5.714;2023-07-20T13:22:44;30.30;49.50
10121;DHT22;5100;45.176;5.714;2023-07-20T13:25:10;30.30;49.30
10121;DHT22;5100;45.176;5.714;2023-07-20T13:27:36;30.30;49.20
10121;DHT22;5100;45.176;5.714;2023-07-20T13:30:02;30.30;49.20
10121;DHT22;5100;45.176;5.714;2023-07-20T13:32:32;30.30;48.90
10121;DHT22;5100;45.176;5.714;2023-07-20T13:34:59;30.40;49.00
10121;DHT22;5100;45.176;5.714;2023-07-20T13:37:25;30.40;48.90
10121;DHT22;5100;45.176;5.714;2023-07-20T13:39:52;30.40;49.00
10121;DHT22;5100;45.176;5.714;2023-07-20T13:42:18;30.40;48.90
10121;DHT22;5100;45.176;5.714;2023-07-20T13:44:45;30.40;48.80
10121;DHT22;5100;45.176;5.714;2023-07-20T13:47:12;30.40;48.80
10121;DHT22;5100;45.176;5.714;2023-07-20T13:49:38;30.40;48.90
10121;DHT22;5100;45.176;5.714;2023-07-20T13:52:04;30.50;48.90
10121;DHT22;5100;45.176;5.714;2023-07-20T13:54:30;30.50;48.80
10121;DHT22;5100;45.176;5.714;2023-07-20T13:56:56;30.50;48.80
10121;DHT22;5100;45.176;5.714;2023-07-20T13:59:23;30.50;48.80
10121;DHT22;5100;45.176;5.714;2023-07-20T14:01:49;30.50;48.80
10121;DHT22;5100;45.176;5.714;2023-07-20T14:04:15;30.50;48.80
10121;DHT22;5100;45.176;5.714;2023-07-20T14:06:41;30.50;48.80
10121;DHT22;5100;45.176;5.714;2023-07-20T14:09:07;30.50;48.90
10121;DHT22;5100;45.176;5.714;2023-07-20T14:11:33;30.50;48.70
10121;DHT22;5100;45.176;5.714;2023-07-20T14:13:59;30.60;48.60
10121;DHT22;5100;45.176;5.714;2023-07-20T14:16:25;30.60;48.60
10121;DHT22;5100;45.176;5.714;2023-07-20T14:18:52;30.60;48.60
10121;DHT22;5100;45.176;5.714;2023-07-20T14:21:19;30.60;48.50
10121;DHT22;5100;45.176;5.714;2023-07-20T14:23:47;30.60;48.50
10121;DHT22;5100;45.176;5.714;2023-07-20T14:26:14;30.60;48.50
10121;DHT22;5100;45.176;5.714;2023-07-20T14:28:40;30.60;48.40
10121;DHT22;5100;45.176;5.714;2023-07-20T14:31:06;30.60;48.40
10121;DHT22;5100;45.176;5.714;2023-07-20T14:33:32;30.60;48.20
10121;DHT22;5100;45.176;5.714;2023-07-20T14:35:58;30.60;48.20
10121;DHT22;5100;45.176;5.714;2023-07-20T14:38:25;30.60;48.10
10121;DHT22;5100;45.176;5.714;2023-07-20T14:40:51;30.60;48.20
10121;DHT22;5100;45.176;5.714;2023-07-20T14:43:17;30.70;48.10
10121;DHT22;5100;45.176;5.714;2023-07-20T14:45:43;30.70;48.10
10121;DHT22;5100;45.176;5.714;2023-07-20T14:48:11;30.70;48.00
10121;DHT22;5100;45.176;5.714;2023-07-20T14:50:37;30.70;48.00
10121;DHT22;5100;45.176;5.714;2023-07-20T14:53:03;30.70;47.90
10121;DHT22;5100;45.176;5.714;2023-07-20T14:55:29;30.70;47.80
10121;DHT22;5100;45.176;5.714;2023-07-20T14:57:55;30.70;47.80
10121;DHT22;5100;45.176;5.714;2023-07-20T15:00:21;30.70;47.70
10121;DHT22;5100;45.176;5.714;2023-07-20T15:02:47;30.70;47.70
10121;DHT22;5100;45.176;5.714;2023-07-20T15:05:21;30.70;47.80
10121;DHT22;5100;45.176;5.714;2023-07-20T15:07:48;30.70;47.70
10121;DHT22;5100;45.176;5.714;2023-07-20T15:10:15;30.70;47.60
10121;DHT22;5100;45.176;5.714;2023-07-20T15:12:41;30.70;47.60
10121;DHT22;5100;45.176;5.714;2023-07-20T15:15:15;30.70;47.50
10121;DHT22;5100;45.176;5.714;2023-07-20T15:17:42;30.70;47.40
10121;DHT22;5100;45.176;5.714;2023-07-20T15:20:11;30.70;47.40
10121;DHT22;5100;45.176;5.714;2023-07-20T15:22:38;30.80;47.30
10121;DHT22;5100;45.176;5.714;2023-07-20T15:25:08;30.80;47.20
10121;DHT22;5100;45.176;5.714;2023-07-20T15:27:34;30.80;47.20
10121;DHT22;5100;45.176;5.714;2023-07-20T15:30:00;30.80;47.20
10121;DHT22;5100;45.176;5.714;2023-07-20T15:32:26;30.80;47.20
10121;DHT22;5100;45.176;5.714;2023-07-20T15:34:53;30.80;47.20
10121;DHT22;5100;45.176;5.714;2023-07-20T15:37:19;30.80;46.90
10121;DHT22;5100;45.176;5.714;2023-07-20T15:39:49;30.80;46.60
10121;DHT22;5100;45.176;5.714;2023-07-20T15:42:15;30.80;46.60
10121;DHT22;5100;45.176;5.714;2023-07-20T15:44:41;30.80;46.60
10121;DHT22;5100;45.176;5.714;2023-07-20T15:47:07;30.80;46.50
10121;DHT22;5100;45.176;5.714;2023-07-20T15:49:34;30.80;46.70
10121;DHT22;5100;45.176;5.714;2023-07-20T15:52:00;30.80;46.70
10121;DHT22;5100;45.176;5.714;2023-07-20T15:54:26;30.80;46.70
10121;DHT22;5100;45.176;5.714;2023-07-20T15:56:52;30.80;46.70
10121;DHT22;5100;45.176;5.714;2023-07-20T15:59:19;30.80;46.60